Terminal Aerodrome Forecast
Issued by NWS

Home | Current Version | Previous Version | Text Only | Print | Product List | Glossary On
Versions: 1 2 3 4 5 6 7 8 9 10 11 12 13 14 15 16 17 18 19 20 21 22 23 24 25 26 27 28
173
FTUS43 KLOT 222320
TAFORD
TAF
KORD 222320Z 2300/2406 07009KT P6SM SCT120 BKN250
     FM230700 14007KT P6SM BKN100
     FM231500 15012KT P6SM SCT050 OVC080
     FM232100 16013G20KT P6SM VCSH SCT030 OVC060
     FM240000 17013KT P6SM VCSH SCT025 OVC035
     FM240300 19013KT P6SM SCT025 BKN150=

USA.gov is the U.S. government's official web portal to all federal, state and local government web resources and services.